createdAt,value
2023-12-09T00:02:20.719Z,100779.81
2023-12-09T00:04:50.205Z,100778.22
2023-12-09T00:07:18.295Z,100786.47
2023-12-09T00:09:46.454Z,100781.75
2023-12-09T00:12:14.716Z,100785.22
2023-12-09T00:14:42.732Z,100786.63
2023-12-09T00:17:10.838Z,100777.09
2023-12-09T00:19:42.665Z,100779.88
2023-12-09T00:22:12.568Z,100777.38
2023-12-09T00:24:41.621Z,100779.28
2023-12-09T00:27:09.792Z,100784.34
2023-12-09T00:29:38.382Z,100778.94
2023-12-09T00:32:07.243Z,100774.56
2023-12-09T00:34:36.636Z,100787.66
2023-12-09T00:37:07.912Z,100781.53
2023-12-09T00:39:37.399Z,100785.81
2023-12-09T00:42:06.401Z,100777.38
2023-12-09T00:44:36.784Z,100788.41
2023-12-09T00:47:05.441Z,100784.13
2023-12-09T00:49:34.261Z,100785.94
2023-12-09T00:52:02.332Z,100788.47
2023-12-09T00:54:30.707Z,100792.25
2023-12-09T00:57:00.165Z,100797.28
2023-12-09T00:59:28.282Z,100792.72
2023-12-09T01:01:56.645Z,100787.47
2023-12-09T01:04:24.659Z,100792.19
2023-12-09T01:06:53.076Z,100793.00
2023-12-09T01:09:21.300Z,100791.38
2023-12-09T01:11:50.566Z,100798.09
2023-12-09T01:14:21.574Z,100798.09
2023-12-09T01:16:49.574Z,100798.75
2023-12-09T01:19:17.624Z,100809.84
2023-12-09T01:21:45.818Z,100804.56
2023-12-09T01:24:14.271Z,100814.34
2023-12-09T01:26:42.284Z,100802.03
2023-12-09T01:29:11.601Z,100801.38
2023-12-09T01:31:40.892Z,100811.34
2023-12-09T01:34:09.475Z,100806.09
2023-12-09T01:36:37.617Z,100808.84
2023-12-09T01:39:05.784Z,100807.72
2023-12-09T01:41:33.888Z,100799.44
2023-12-09T01:44:01.870Z,100804.63
2023-12-09T01:46:30.389Z,100803.56
2023-12-09T01:49:00.595Z,100791.38
2023-12-09T01:51:29.684Z,100798.25
2023-12-09T01:53:57.932Z,100791.56
2023-12-09T01:56:26.088Z,100791.72
2023-12-09T01:58:54.269Z,100801.72
2023-12-09T02:01:22.255Z,100800.06
2023-12-09T02:03:52.677Z,100794.09
2023-12-09T02:06:22.378Z,100800.06
2023-12-09T02:08:50.636Z,100791.34
2023-12-09T02:11:25.666Z,100795.94
2023-12-09T02:14:00.587Z,100797.50
2023-12-09T02:16:36.990Z,100788.44
2023-12-09T02:19:07.188Z,100790.75
2023-12-09T02:22:04.815Z,100787.22
2023-12-09T02:24:35.674Z,100792.97
2023-12-09T02:27:09.485Z,100792.81
2023-12-09T02:29:46.212Z,100786.91
2023-12-09T02:32:16.447Z,100797.50
2023-12-09T02:34:45.917Z,100796.53
2023-12-09T02:37:14.995Z,100800.59
2023-12-09T02:39:45.703Z,100804.59
2023-12-09T02:42:15.113Z,100802.97
2023-12-09T02:44:44.706Z,100799.69
2023-12-09T02:47:16.059Z,100794.50
2023-12-09T02:49:44.412Z,100792.00
2023-12-09T02:52:13.099Z,100783.34
2023-12-09T02:54:41.567Z,100784.88
2023-12-09T02:57:11.292Z,100782.53
2023-12-09T02:59:39.367Z,100784.94
2023-12-09T03:02:07.665Z,100791.19
2023-12-09T03:04:36.360Z,100788.78
2023-12-09T03:07:04.750Z,100784.47
2023-12-09T03:09:32.873Z,100794.75
2023-12-09T03:12:01.094Z,100780.09
2023-12-09T03:14:30.609Z,100782.97
2023-12-09T03:16:58.701Z,100783.50
2023-12-09T03:19:27.045Z,100794.66
2023-12-09T03:21:55.030Z,100784.25
2023-12-09T03:24:23.158Z,100786.59
2023-12-09T03:26:52.059Z,100791.47
2023-12-09T03:29:20.577Z,100791.06
2023-12-09T03:31:50.702Z,100798.16
2023-12-09T03:34:19.276Z,100804.97
2023-12-09T03:36:47.776Z,100796.25
2023-12-09T03:39:16.803Z,100804.41
2023-12-09T03:41:44.820Z,100796.47
2023-12-09T03:44:13.033Z,100794.50
2023-12-09T03:46:41.060Z,100801.56
2023-12-09T03:49:10.611Z,100791.84
2023-12-09T03:51:37.876Z,100791.44
2023-12-09T03:54:06.105Z,100792.72
2023-12-09T03:56:34.278Z,100788.44
2023-12-09T03:59:02.490Z,100797.78
2023-12-09T04:03:59.432Z,100791.44
2023-12-09T04:06:28.834Z,100803.59
2023-12-09T04:08:57.069Z,100805.63
2023-12-09T04:11:25.291Z,100804.00
2023-12-09T04:13:53.290Z,100801.22
2023-12-09T04:16:21.438Z,100805.72
2023-12-09T04:18:49.831Z,100808.88
2023-12-09T04:21:19.214Z,100816.50
2023-12-09T04:23:48.963Z,100815.88
2023-12-09T04:26:16.926Z,100816.97
2023-12-09T04:28:44.889Z,100822.34
2023-12-09T04:31:12.962Z,100822.75
2023-12-09T04:33:41.764Z,100815.13
2023-12-09T04:36:10.517Z,100816.66
2023-12-09T04:38:38.618Z,100812.38
2023-12-09T04:41:08.453Z,100813.50
2023-12-09T04:43:36.523Z,100818.53
2023-12-09T04:46:04.920Z,100819.47
2023-12-09T04:48:33.005Z,100819.31
2023-12-09T04:51:01.153Z,100811.47
2023-12-09T04:53:29.677Z,100815.78
2023-12-09T04:55:57.729Z,100819.19
2023-12-09T04:58:27.204Z,100825.75
2023-12-09T05:00:55.379Z,100819.09
2023-12-09T05:03:23.798Z,100814.88
2023-12-09T05:05:52.510Z,100817.00
2023-12-09T05:08:20.788Z,100819.41
2023-12-09T05:10:49.298Z,100817.19
2023-12-09T05:13:17.238Z,100813.75
2023-12-09T05:15:46.758Z,100810.53
2023-12-09T05:18:14.929Z,100811.38
2023-12-09T05:20:43.309Z,100815.50
2023-12-09T05:23:12.465Z,100816.25
2023-12-09T05:25:40.420Z,100814.25
2023-12-09T05:28:08.784Z,100814.31
2023-12-09T05:30:37.298Z,100796.28
2023-12-09T05:33:07.014Z,100795.38
2023-12-09T05:35:35.089Z,100795.38
2023-12-09T05:38:03.381Z,100795.09
2023-12-09T05:40:34.271Z,100789.13
2023-12-09T05:43:03.821Z,100787.50
2023-12-09T05:45:31.839Z,100784.75
2023-12-09T05:48:00.091Z,100780.53
2023-12-09T05:50:29.550Z,100776.31
2023-12-09T05:52:58.497Z,100784.09
2023-12-09T05:55:28.165Z,100785.72
2023-12-09T05:57:56.160Z,100777.91
2023-12-09T06:00:24.566Z,100774.47
2023-12-09T06:02:52.834Z,100770.22
2023-12-09T06:05:20.844Z,100776.25
2023-12-09T06:07:50.170Z,100781.34
2023-12-09T06:10:18.229Z,100781.91
2023-12-09T06:12:46.161Z,100785.13
2023-12-09T06:15:14.164Z,100777.09
2023-12-09T06:17:42.156Z,100771.13
2023-12-09T06:20:11.012Z,100776.44
2023-12-09T06:22:39.005Z,100765.94
2023-12-09T06:25:10.149Z,100770.22
2023-12-09T06:27:38.615Z,100770.94
2023-12-09T06:30:08.036Z,100771.63
2023-12-09T06:32:36.033Z,100767.41
2023-12-09T06:35:04.056Z,100770.00
2023-12-09T06:37:31.971Z,100756.19
2023-12-09T06:40:00.355Z,100763.91
2023-12-09T06:42:30.951Z,100776.81
2023-12-09T06:44:59.089Z,100768.75
2023-12-09T06:47:27.762Z,100770.63
2023-12-09T06:49:55.845Z,100775.63
2023-12-09T06:52:24.142Z,100769.38
2023-12-09T06:54:52.286Z,100771.47
2023-12-09T06:57:20.713Z,100772.38
2023-12-09T06:59:50.042Z,100775.22
2023-12-09T07:02:17.966Z,100781.13
2023-12-09T07:04:45.952Z,100780.84
2023-12-09T07:07:21.338Z,100786.22
2023-12-09T07:09:50.282Z,100793.31
2023-12-09T07:12:18.233Z,100803.66
2023-12-09T07:14:46.446Z,100804.59
2023-12-09T07:17:15.761Z,100790.25
2023-12-09T07:19:44.021Z,100779.91
2023-12-09T07:22:11.999Z,100794.59
2023-12-09T07:24:40.030Z,100783.22
2023-12-09T07:27:08.044Z,100780.81
2023-12-09T07:29:36.387Z,100768.91
2023-12-09T07:32:05.355Z,100762.97
2023-12-09T07:34:34.901Z,100769.34
2023-12-09T07:37:02.900Z,100778.19
2023-12-09T07:39:30.903Z,100775.03
2023-12-09T07:41:59.045Z,100772.84
2023-12-09T07:44:27.117Z,100766.38
2023-12-09T07:46:55.010Z,100763.94
2023-12-09T07:49:23.036Z,100767.81
2023-12-09T07:51:52.573Z,100756.00
2023-12-09T07:54:20.624Z,100754.28
2023-12-09T07:56:48.665Z,100773.19
2023-12-09T07:59:16.577Z,100768.06
2023-12-09T08:01:44.534Z,100770.06
2023-12-09T08:04:12.873Z,100761.78
2023-12-09T08:06:41.216Z,100777.56
2023-12-09T08:09:10.933Z,100766.97
2023-12-09T08:11:38.936Z,100775.09
2023-12-09T08:14:09.665Z,100767.69
2023-12-09T08:16:38.792Z,100760.47
2023-12-09T08:19:06.816Z,100758.84
2023-12-09T08:21:37.886Z,100761.63
2023-12-09T08:24:06.469Z,100755.22
2023-12-09T08:26:36.163Z,100766.91
2023-12-09T08:29:05.060Z,100763.97
2023-12-09T08:31:33.511Z,100766.53
2023-12-09T08:34:01.591Z,100767.50
2023-12-09T08:36:29.671Z,100770.19
2023-12-09T08:38:57.825Z,100761.72
2023-12-09T08:41:27.408Z,100759.41
2023-12-09T08:43:58.632Z,100757.72
2023-12-09T08:46:26.666Z,100754.09
2023-12-09T08:48:55.218Z,100767.91
2023-12-09T08:51:23.720Z,100768.41
2023-12-09T08:53:51.852Z,100770.56
2023-12-09T08:56:19.862Z,100779.00
2023-12-09T08:58:47.878Z,100773.22
2023-12-09T09:01:17.266Z,100758.94
2023-12-09T09:03:45.671Z,100754.13
2023-12-09T09:06:13.831Z,100752.69
2023-12-09T09:08:41.838Z,100750.34
2023-12-09T09:11:11.040Z,100747.47
2023-12-09T09:13:39.628Z,100744.56
2023-12-09T09:16:08.262Z,100729.56
2023-12-09T09:18:37.861Z,100732.97
2023-12-09T09:21:08.839Z,100732.97
2023-12-09T09:23:36.892Z,100733.84
2023-12-09T09:26:05.718Z,100726.81
2023-12-09T09:28:33.666Z,100731.47
2023-12-09T09:31:01.653Z,100731.06
2023-12-09T09:33:32.007Z,100728.13
2023-12-09T09:36:01.663Z,100721.88
2023-12-09T09:38:29.637Z,100726.50
2023-12-09T09:40:58.146Z,100727.50
2023-12-09T09:43:30.848Z,100721.59
2023-12-09T09:45:59.154Z,100719.97
2023-12-09T09:48:27.741Z,100722.56
2023-12-09T09:50:59.067Z,100727.16
2023-12-09T09:53:36.549Z,100722.38
2023-12-09T09:56:07.519Z,100716.16
2023-12-09T09:58:36.829Z,100714.28
2023-12-09T10:01:07.462Z,100711.75
2023-12-09T10:03:35.640Z,100710.97
2023-12-09T10:06:05.462Z,100705.06
2023-12-09T10:08:34.927Z,100697.16
2023-12-09T10:11:02.935Z,100693.94
2023-12-09T10:13:30.856Z,100689.56
2023-12-09T10:15:58.785Z,100694.94
2023-12-09T10:18:26.925Z,100682.94
2023-12-09T10:20:55.029Z,100687.69
2023-12-09T10:23:23.404Z,100687.63
2023-12-09T10:25:52.738Z,100674.13
2023-12-09T10:28:21.613Z,100679.31
2023-12-09T10:30:49.736Z,100675.91
2023-12-09T10:33:17.908Z,100669.22
2023-12-09T10:35:46.367Z,100661.44
2023-12-09T10:38:17.395Z,100662.06
2023-12-09T10:40:45.797Z,100659.47
2023-12-09T10:43:16.484Z,100659.38
2023-12-09T10:45:44.802Z,100651.56
2023-12-09T10:48:12.857Z,100642.72
2023-12-09T10:50:45.939Z,100647.16
2023-12-09T10:53:13.910Z,100634.44
2023-12-09T10:55:42.724Z,100621.94
2023-12-09T10:58:12.918Z,100617.81
2023-12-09T11:00:43.844Z,100626.13
2023-12-09T11:03:12.498Z,100610.88
2023-12-09T11:05:46.723Z,100606.81
2023-12-09T11:08:15.908Z,100606.22
2023-12-09T11:10:44.269Z,100609.72
2023-12-09T11:13:13.412Z,100599.31
2023-12-09T11:15:42.950Z,100599.78
2023-12-09T11:18:12.817Z,100595.41
2023-12-09T11:20:43.001Z,100602.53
2023-12-09T11:23:12.371Z,100586.97
2023-12-09T11:25:42.005Z,100575.25
2023-12-09T11:28:11.946Z,100575.88
2023-12-09T11:30:43.449Z,100563.31
2023-12-09T11:33:12.093Z,100566.44
2023-12-09T11:35:40.718Z,100564.13
2023-12-09T11:38:10.526Z,100557.44
2023-12-09T11:40:38.502Z,100559.50
2023-12-09T11:43:07.647Z,100560.09
2023-12-09T11:45:37.725Z,100551.00
2023-12-09T11:48:08.061Z,100547.22
2023-12-09T11:50:36.541Z,100545.34
2023-12-09T11:53:04.553Z,100542.13
2023-12-09T11:55:32.529Z,100541.03
2023-12-09T11:58:00.506Z,100534.19
2023-12-09T12:00:28.882Z,100532.44
2023-12-09T12:02:56.859Z,100519.09
2023-12-09T12:05:26.430Z,100505.47
2023-12-09T12:07:57.053Z,100499.47
2023-12-09T12:10:26.036Z,100493.34
2023-12-09T12:12:54.121Z,100494.25
2023-12-09T12:15:22.304Z,100491.56
2023-12-09T12:17:50.595Z,100484.28
2023-12-09T12:20:18.767Z,100490.06
2023-12-09T12:22:50.109Z,100489.16
2023-12-09T12:25:18.585Z,100487.56
2023-12-09T12:27:47.159Z,100490.72
2023-12-09T12:30:16.143Z,100488.56
2023-12-09T12:32:45.048Z,100490.47
2023-12-09T12:35:13.423Z,100479.44
2023-12-09T12:37:41.625Z,100480.06
2023-12-09T12:40:12.436Z,100473.06
2023-12-09T12:42:40.718Z,100466.59
2023-12-09T12:45:19.636Z,100468.28
2023-12-09T12:47:48.004Z,100469.53
2023-12-09T12:50:17.481Z,100462.38
2023-12-09T12:52:46.822Z,100452.63
2023-12-09T12:55:16.402Z,100446.41
2023-12-09T12:57:45.197Z,100438.44
2023-12-09T13:00:15.775Z,100433.53
2023-12-09T13:02:44.116Z,100422.63
2023-12-09T13:05:12.598Z,100411.84
2023-12-09T13:07:40.892Z,100400.94
2023-12-09T13:10:10.001Z,100407.56
2023-12-09T13:12:39.651Z,100415.63
2023-12-09T13:15:09.760Z,100414.75
2023-12-09T13:17:38.245Z,100412.72
2023-12-09T13:20:07.939Z,100406.31
2023-12-09T13:22:36.918Z,100395.72
2023-12-09T13:25:06.811Z,100392.97
2023-12-09T13:27:35.405Z,100385.31
2023-12-09T13:30:07.880Z,100376.72
2023-12-09T13:32:37.298Z,100377.06
2023-12-09T13:35:06.827Z,100368.84
2023-12-09T13:37:35.789Z,100362.31
2023-12-09T13:40:04.804Z,100358.13
2023-12-09T13:42:33.493Z,100356.81
2023-12-09T13:45:01.798Z,100352.69
2023-12-09T13:47:31.860Z,100354.16
2023-12-09T13:50:00.296Z,100349.78
2023-12-09T13:52:31.989Z,100355.53
2023-12-09T13:55:00.737Z,100345.72
2023-12-09T13:57:29.030Z,100346.34
2023-12-09T13:59:57.310Z,100363.88
2023-12-09T14:02:25.522Z,100361.63
2023-12-09T14:04:55.432Z,100359.03
2023-12-09T14:07:24.557Z,100364.75
2023-12-09T14:09:52.886Z,100357.69
2023-12-09T14:12:21.047Z,100356.84
2023-12-09T14:14:49.365Z,100354.34
2023-12-09T14:17:17.626Z,100350.66
2023-12-09T14:19:45.851Z,100347.38
2023-12-09T14:22:15.881Z,100336.97
2023-12-09T14:24:43.947Z,100326.44
2023-12-09T14:27:15.215Z,100320.50
2023-12-09T14:29:43.406Z,100323.09
2023-12-09T14:32:11.385Z,100322.38
2023-12-09T14:34:39.872Z,100312.69
2023-12-09T14:37:08.568Z,100312.28
2023-12-09T14:39:38.303Z,100302.13
2023-12-09T14:42:06.985Z,100296.94
2023-12-09T14:44:35.199Z,100297.19
2023-12-09T14:47:03.369Z,100288.19
2023-12-09T14:49:31.576Z,100276.50
2023-12-09T14:51:59.793Z,100269.19
2023-12-09T14:54:27.936Z,100270.47
2023-12-09T14:56:57.721Z,100266.69
2023-12-09T14:59:26.341Z,100254.66
2023-12-09T15:01:54.699Z,100246.19
2023-12-09T15:04:22.865Z,100244.25
2023-12-09T15:06:52.263Z,100242.16
2023-12-09T15:09:20.522Z,100233.28
2023-12-09T15:11:49.557Z,100240.13
2023-12-09T15:14:19.268Z,100235.19
2023-12-09T15:16:47.447Z,100232.66
2023-12-09T15:19:15.830Z,100231.91
2023-12-09T15:21:44.312Z,100235.53
2023-12-09T15:24:12.848Z,100224.91
2023-12-09T15:26:41.433Z,100225.34
2023-12-09T15:29:09.482Z,100228.63
2023-12-09T15:31:39.012Z,100217.22
2023-12-09T15:34:07.334Z,100213.59
2023-12-09T15:36:35.814Z,100206.94
2023-12-09T15:39:04.831Z,100214.91
2023-12-09T15:41:34.225Z,100209.94
2023-12-09T15:44:02.436Z,100197.78
2023-12-09T15:46:30.895Z,100196.34
2023-12-09T15:49:02.147Z,100203.00
2023-12-09T15:51:30.336Z,100196.03
2023-12-09T15:53:58.404Z,100200.78
2023-12-09T15:56:26.896Z,100193.50
2023-12-09T15:58:55.432Z,100183.75
2023-12-09T16:01:23.914Z,100179.63
2023-12-09T16:03:53.303Z,100179.53
2023-12-09T16:06:22.916Z,100166.63
2023-12-09T16:08:51.343Z,100164.19
2023-12-09T16:11:19.755Z,100163.41
2023-12-09T16:13:47.808Z,100165.34
2023-12-09T16:16:16.390Z,100165.28
2023-12-09T16:18:44.542Z,100155.56
2023-12-09T16:21:12.718Z,100147.16
2023-12-09T16:23:42.202Z,100144.63
2023-12-09T16:26:12.010Z,100139.53
2023-12-09T16:28:40.932Z,100138.63
2023-12-09T16:31:15.290Z,100132.97
2023-12-09T16:33:43.456Z,100131.22
2023-12-09T16:36:12.214Z,100137.56
2023-12-09T16:38:40.237Z,100126.94
2023-12-09T16:41:09.937Z,100124.41
2023-12-09T16:43:37.948Z,100108.69
2023-12-09T16:46:06.453Z,100102.72
2023-12-09T16:48:34.667Z,100095.84
2023-12-09T16:51:03.470Z,100093.00
2023-12-09T16:53:31.632Z,100085.78
2023-12-09T16:56:02.412Z,100073.16
2023-12-09T16:58:31.959Z,100067.19
2023-12-09T17:01:00.473Z,100066.03
2023-12-09T17:03:28.711Z,100056.38
2023-12-09T17:05:56.999Z,100045.66
2023-12-09T17:08:25.164Z,100047.31
2023-12-09T17:10:54.470Z,100041.19
2023-12-09T17:13:22.489Z,100042.03
2023-12-09T17:15:51.983Z,100030.44
2023-12-09T17:18:20.378Z,100024.56
2023-12-09T17:20:48.520Z,100019.47
2023-12-09T17:23:17.147Z,100027.94
2023-12-09T17:25:45.248Z,100028.94
2023-12-09T17:28:13.406Z,100023.09
2023-12-09T17:30:41.525Z,100022.94
2023-12-09T17:33:11.174Z,100015.53
2023-12-09T17:35:39.404Z,100011.59
2023-12-09T17:38:07.421Z,99997.59
2023-12-09T17:40:35.414Z,99993.66
2023-12-09T17:43:03.902Z,99992.31
2023-12-09T17:45:31.973Z,99984.44
2023-12-09T17:48:00.325Z,99971.44
2023-12-09T17:50:32.496Z,99973.63
2023-12-09T17:53:00.610Z,99973.13
2023-12-09T17:55:28.621Z,99965.25
2023-12-09T17:57:57.349Z,99958.88
2023-12-09T18:00:25.696Z,99946.13
2023-12-09T18:02:54.131Z,99935.56
2023-12-09T18:05:22.273Z,99928.94
2023-12-09T18:07:51.739Z,99915.47
2023-12-09T18:10:19.817Z,99903.41
2023-12-09T18:12:47.886Z,99897.88
2023-12-09T18:15:16.083Z,99891.00
2023-12-09T18:17:44.412Z,99879.59
2023-12-09T18:20:13.072Z,99869.97
2023-12-09T18:22:42.866Z,99887.66
2023-12-09T18:25:13.653Z,99890.69
2023-12-09T18:27:42.694Z,99888.16
2023-12-09T18:30:11.888Z,99896.84
2023-12-09T18:32:40.230Z,99894.25
2023-12-09T18:35:12.112Z,99887.47
2023-12-09T18:37:40.640Z,99872.31
2023-12-09T18:40:11.056Z,99849.44
2023-12-09T18:42:40.808Z,99841.19
2023-12-09T18:45:09.577Z,99844.50
2023-12-09T18:47:38.706Z,99853.72
2023-12-09T18:50:07.764Z,99857.16
2023-12-09T18:52:35.817Z,99854.22
2023-12-09T18:55:04.278Z,99847.69
2023-12-09T18:57:32.623Z,99827.53
2023-12-09T19:00:05.370Z,99813.78
2023-12-09T19:02:34.279Z,99813.44
2023-12-09T19:05:02.906Z,99804.31
2023-12-09T19:07:31.424Z,99807.00
2023-12-09T19:10:03.823Z,99794.44
2023-12-09T19:12:33.912Z,99788.50
2023-12-09T19:15:03.551Z,99786.31
2023-12-09T19:17:32.375Z,99787.16
2023-12-09T19:20:00.787Z,99777.44
2023-12-09T19:22:29.213Z,99778.59
2023-12-09T19:25:00.398Z,99770.56
2023-12-09T19:27:28.501Z,99765.94
2023-12-09T19:29:56.767Z,99763.38
2023-12-09T19:32:28.040Z,99761.34
2023-12-09T19:34:57.300Z,99757.84
2023-12-09T19:37:25.397Z,99754.59
2023-12-09T19:39:53.565Z,99746.38
2023-12-09T19:42:23.632Z,99742.28
2023-12-09T19:44:51.756Z,99743.94
2023-12-09T19:47:19.936Z,99752.72
2023-12-09T19:49:49.450Z,99747.47
2023-12-09T19:52:17.627Z,99734.94
2023-12-09T19:54:45.714Z,99739.78
2023-12-09T19:57:13.888Z,99731.47
2023-12-09T19:59:44.214Z,99716.50
2023-12-09T20:02:12.294Z,99696.16
2023-12-09T20:04:40.501Z,99691.22
2023-12-09T20:07:09.949Z,99691.06
2023-12-09T20:09:38.060Z,99691.88
2023-12-09T20:12:06.802Z,99686.44
2023-12-09T20:14:35.002Z,99679.31
2023-12-09T20:17:03.354Z,99686.84
2023-12-09T20:19:31.558Z,99681.75
2023-12-09T20:21:59.601Z,99676.47
2023-12-09T20:24:29.100Z,99671.44
2023-12-09T20:26:58.069Z,99668.19
2023-12-09T20:29:28.019Z,99657.78
2023-12-09T20:31:56.114Z,99646.31
2023-12-09T20:34:24.229Z,99653.91
2023-12-09T20:36:52.783Z,99651.88
2023-12-09T20:39:21.404Z,99643.72
2023-12-09T20:41:50.949Z,99642.31
2023-12-09T20:44:19.006Z,99637.88
2023-12-09T20:46:47.459Z,99638.81
2023-12-09T20:49:17.950Z,99634.28
2023-12-09T20:51:46.845Z,99636.50
2023-12-09T20:54:14.944Z,99643.00
2023-12-09T20:56:43.143Z,99635.31
2023-12-09T20:59:12.624Z,99638.97
2023-12-09T21:01:50.161Z,99635.81
2023-12-09T21:04:19.245Z,99634.91
2023-12-09T21:06:50.082Z,99625.81
2023-12-09T21:09:18.507Z,99611.59
2023-12-09T21:11:46.678Z,99618.41
2023-12-09T21:14:16.399Z,99614.84
2023-12-09T21:16:44.677Z,99618.84
2023-12-09T21:19:13.288Z,99616.84
2023-12-09T21:21:40.861Z,99619.69
2023-12-09T21:24:09.320Z,99617.94
2023-12-09T21:26:39.715Z,99619.69
2023-12-09T21:29:08.036Z,99614.22
2023-12-09T21:31:37.815Z,99613.31
2023-12-09T21:34:06.641Z,99607.09
2023-12-09T21:36:37.543Z,99598.19
2023-12-09T21:39:05.710Z,99591.41
2023-12-09T21:41:33.835Z,99593.25
2023-12-09T21:44:02.005Z,99596.41
2023-12-09T21:46:30.546Z,99584.91
2023-12-09T21:49:01.001Z,99584.75
2023-12-09T21:51:30.074Z,99583.63
2023-12-09T21:53:58.280Z,99572.75
2023-12-09T21:56:29.254Z,99571.81
2023-12-09T21:58:57.596Z,99562.63
2023-12-09T22:01:25.794Z,99564.22
2023-12-09T22:03:54.047Z,99564.94
2023-12-09T22:06:23.566Z,99558.94
2023-12-09T22:08:52.227Z,99559.97
2023-12-09T22:11:21.369Z,99557.53
2023-12-09T22:13:49.756Z,99548.72
2023-12-09T22:16:21.240Z,99543.81
2023-12-09T22:18:50.056Z,99540.75
2023-12-09T22:21:18.577Z,99531.19
2023-12-09T22:23:52.057Z,99533.72
2023-12-09T22:26:24.176Z,99528.13
2023-12-09T22:28:52.499Z,99525.00
2023-12-09T22:31:20.800Z,99524.03
2023-12-09T22:33:51.537Z,99517.84
2023-12-09T22:36:22.082Z,99516.31
2023-12-09T22:38:52.233Z,99513.25
2023-12-09T22:41:22.258Z,99516.91
2023-12-09T22:43:51.059Z,99512.66
2023-12-09T22:46:26.234Z,99512.00
2023-12-09T22:48:54.481Z,99506.88
2023-12-09T22:51:22.934Z,99504.56
2023-12-09T22:53:52.644Z,99509.31
2023-12-09T22:56:21.621Z,99512.38
2023-12-09T22:58:50.110Z,99513.75
2023-12-09T23:01:24.009Z,99521.34
2023-12-09T23:03:52.649Z,99505.97
2023-12-09T23:06:21.678Z,99504.28
2023-12-09T23:08:50.058Z,99507.38
2023-12-09T23:11:19.904Z,99502.53
2023-12-09T23:13:48.025Z,99496.69
2023-12-09T23:16:16.163Z,99492.78
2023-12-09T23:18:44.546Z,99488.53
2023-12-09T23:21:13.075Z,99484.38
2023-12-09T23:23:41.239Z,99483.63
2023-12-09T23:26:09.396Z,99478.69
2023-12-09T23:28:41.219Z,99478.41
2023-12-09T23:31:09.297Z,99473.09
2023-12-09T23:33:37.551Z,99473.31
2023-12-09T23:36:06.598Z,99473.03
2023-12-09T23:38:34.714Z,99459.03
2023-12-09T23:41:02.781Z,99466.72
2023-12-09T23:43:30.999Z,99468.28
2023-12-09T23:46:00.483Z,99471.44
2023-12-09T23:48:28.642Z,99462.91
2023-12-09T23:50:56.728Z,99452.50
2023-12-09T23:53:27.206Z,99458.56
2023-12-09T23:55:55.295Z,99449.22
2023-12-09T23:58:23.436Z,99474.69
